createdAt,value
2022-12-24T00:11:49.478Z,11
2022-12-24T00:12:43.009Z,11
2022-12-24T00:41:40.035Z,11
2022-12-24T02:06:40.338Z,10.6
2022-12-24T03:43:00.380Z,10.5
2022-12-24T04:04:39.309Z,10.4
2022-12-24T04:42:49.474Z,10.5
2022-12-24T04:43:43.008Z,10.5
2022-12-24T05:26:38.721Z,10.6
2022-12-24T05:27:38.710Z,10.7
2022-12-24T05:28:38.739Z,10.7
2022-12-24T05:29:38.723Z,10.7
2022-12-24T06:01:39.053Z,10.6
2022-12-24T06:16:38.797Z,10.7
2022-12-24T06:17:38.735Z,10.7
2022-12-24T07:27:38.993Z,11.3
2022-12-24T08:53:39.409Z,11
2022-12-24T09:03:44.678Z,12.2
2022-12-24T09:12:38.704Z,12.1
2022-12-24T09:23:38.797Z,11.8
2022-12-24T09:49:38.695Z,14.3
2022-12-24T10:19:38.725Z,11.6
2022-12-24T10:31:38.695Z,11.9
2022-12-24T10:34:48.755Z,12
2022-12-24T10:56:38.689Z,11.8
2022-12-24T11:19:38.746Z,11.7
2022-12-24T11:31:38.782Z,11.7
2022-12-24T11:40:38.689Z,11.7
2022-12-24T11:44:38.691Z,11.6
2022-12-24T11:47:38.723Z,11.7
2022-12-24T12:01:38.730Z,12
2022-12-24T12:10:38.699Z,11.9
2022-12-24T12:11:38.709Z,11.9
2022-12-24T12:17:38.712Z,11.8
2022-12-24T12:18:38.698Z,11.8
2022-12-24T12:23:38.696Z,11.9
2022-12-24T12:25:38.690Z,11.8
2022-12-24T12:29:38.706Z,12
2022-12-24T12:30:38.694Z,12
2022-12-24T12:31:38.785Z,12
2022-12-24T12:32:38.791Z,12
2022-12-24T12:33:38.689Z,12
2022-12-24T12:36:38.748Z,12.8
2022-12-24T12:37:38.688Z,13.4
2022-12-24T12:39:38.700Z,14.4
2022-12-24T12:40:38.692Z,14.8
2022-12-24T12:41:38.718Z,15
2022-12-24T12:42:38.716Z,15.2
2022-12-24T12:43:38.704Z,15.4
2022-12-24T12:45:38.702Z,14.9
2022-12-24T12:46:38.730Z,14.4
2022-12-24T12:47:38.696Z,14.2
2022-12-24T12:48:38.699Z,14
2022-12-24T12:49:38.701Z,13.8
2022-12-24T12:50:38.701Z,13.6
2022-12-24T12:51:38.695Z,13.4
2022-12-24T12:52:38.691Z,13.2
2022-12-24T12:53:38.704Z,12.9
2022-12-24T12:54:38.690Z,12.9
2022-12-24T12:55:38.741Z,12.8
2022-12-24T12:56:38.692Z,12.8
2022-12-24T12:57:38.696Z,12.8
2022-12-24T12:58:38.708Z,12.6
2022-12-24T12:59:38.708Z,12.6
2022-12-24T13:00:38.734Z,12.6
2022-12-24T13:01:38.852Z,12.5
2022-12-24T13:02:38.860Z,12.5
2022-12-24T13:03:38.698Z,12.5
2022-12-24T13:04:38.704Z,12.4
2022-12-24T13:05:38.715Z,12.4
2022-12-24T13:06:38.780Z,12.3
2022-12-24T13:07:38.710Z,12.3
2022-12-24T13:08:38.709Z,12.3
2022-12-24T13:09:38.720Z,12.3
2022-12-24T13:10:38.722Z,12.3
2022-12-24T13:11:38.701Z,12.3
2022-12-24T13:12:38.705Z,12.3
2022-12-24T13:13:38.720Z,12.3
2022-12-24T13:14:38.699Z,12.3
2022-12-24T13:15:38.699Z,12.2
2022-12-24T13:16:38.787Z,12.2
2022-12-24T13:17:38.711Z,12.2
2022-12-24T13:18:38.730Z,12.2
2022-12-24T13:19:38.716Z,12.1
2022-12-24T13:20:38.705Z,12.1
2022-12-24T13:21:38.709Z,12.1
2022-12-24T13:22:38.699Z,12.1
2022-12-24T13:23:38.709Z,12.1
2022-12-24T13:24:39.999Z,12.1
2022-12-24T13:25:38.791Z,12.1
2022-12-24T13:26:38.709Z,12.1
2022-12-24T13:27:38.706Z,12
2022-12-24T13:28:38.774Z,12.1
2022-12-24T13:29:38.717Z,12
2022-12-24T13:30:38.708Z,12
2022-12-24T13:31:38.785Z,12
2022-12-24T13:32:38.731Z,12
2022-12-24T13:34:38.747Z,11.9
2022-12-24T13:35:39.058Z,11.9
2022-12-24T13:36:38.781Z,11.8
2022-12-24T13:37:38.790Z,11.8
2022-12-24T13:38:38.784Z,11.8
2022-12-24T13:39:38.785Z,11.8
2022-12-24T13:40:38.807Z,11.9
2022-12-24T13:41:41.163Z,11.8
2022-12-24T13:42:38.706Z,11.9
2022-12-24T13:43:38.718Z,11.9
2022-12-24T13:44:38.756Z,11.9
2022-12-24T13:45:38.810Z,11.9
2022-12-24T13:46:38.717Z,11.8
2022-12-24T13:47:38.720Z,11.8
2022-12-24T13:48:38.780Z,11.8
2022-12-24T13:49:38.713Z,11.8
2022-12-24T13:50:38.725Z,11.8
2022-12-24T13:51:38.716Z,11.9
2022-12-24T13:52:42.552Z,11.8
2022-12-24T13:53:38.718Z,11.8
2022-12-24T13:54:38.726Z,11.8
2022-12-24T13:55:38.720Z,11.8
2022-12-24T13:56:38.716Z,11.9
2022-12-24T13:57:38.709Z,11.9
2022-12-24T13:58:38.721Z,11.8
2022-12-24T14:00:38.746Z,11.9
2022-12-24T14:01:38.985Z,11.8
2022-12-24T14:02:38.927Z,11.9
2022-12-24T14:03:38.733Z,11.9
2022-12-24T14:04:38.717Z,11.9
2022-12-24T14:05:38.742Z,11.9
2022-12-24T14:06:38.739Z,11.9
2022-12-24T14:07:38.727Z,11.9
2022-12-24T14:08:38.721Z,11.9
2022-12-24T14:09:38.728Z,12
2022-12-24T14:10:38.728Z,12
2022-12-24T14:11:38.726Z,12
2022-12-24T14:12:38.721Z,12
2022-12-24T14:13:38.739Z,11.9
2022-12-24T14:14:38.727Z,12
2022-12-24T14:15:38.762Z,12
2022-12-24T14:16:38.813Z,12
2022-12-24T14:17:38.758Z,12
2022-12-24T14:18:38.729Z,12
2022-12-24T14:19:38.730Z,11.9
2022-12-24T14:20:38.776Z,12
2022-12-24T14:21:38.755Z,11.9
2022-12-24T14:22:38.766Z,12
2022-12-24T14:23:38.727Z,12
2022-12-24T14:24:38.729Z,12
2022-12-24T14:25:38.730Z,12
2022-12-24T14:26:38.721Z,11.9
2022-12-24T14:27:38.734Z,11.9
2022-12-24T14:28:38.731Z,11.9
2022-12-24T14:29:38.763Z,11.9
2022-12-24T14:30:38.755Z,12
2022-12-24T14:31:38.785Z,12
2022-12-24T14:32:38.754Z,12
2022-12-24T14:33:38.732Z,11.9
2022-12-24T14:34:38.725Z,11.9
2022-12-24T14:35:38.753Z,11.9
2022-12-24T14:36:38.749Z,11.9
2022-12-24T14:37:38.735Z,11.9
2022-12-24T14:38:38.726Z,11.9
2022-12-24T14:39:38.745Z,11.9
2022-12-24T14:40:38.748Z,11.9
2022-12-24T14:41:38.730Z,11.8
2022-12-24T14:42:38.737Z,11.9
2022-12-24T14:43:38.740Z,11.9
2022-12-24T14:44:38.743Z,11.8
2022-12-24T14:45:38.798Z,11.8
2022-12-24T14:46:38.782Z,11.8
2022-12-24T14:47:38.742Z,11.8
2022-12-24T14:48:38.745Z,11.8
2022-12-24T14:49:38.765Z,11.8
2022-12-24T14:50:38.823Z,11.8
2022-12-24T14:51:38.771Z,11.8
2022-12-24T14:53:03.952Z,11.7
2022-12-24T14:53:38.746Z,11.7
2022-12-24T14:54:38.735Z,11.7
2022-12-24T14:55:48.760Z,11.7
2022-12-24T14:56:38.738Z,11.7
2022-12-24T14:57:38.743Z,11.6
2022-12-24T14:58:38.744Z,11.6
2022-12-24T14:59:38.742Z,11.6
2022-12-24T15:00:39.735Z,11.6
2022-12-24T15:01:38.850Z,11.6
2022-12-24T15:02:38.969Z,11.6
2022-12-24T15:03:38.815Z,11.6
2022-12-24T15:04:38.787Z,11.6
2022-12-24T15:05:38.756Z,11.6
2022-12-24T15:06:38.739Z,11.6
2022-12-24T15:07:45.399Z,11.5
2022-12-24T15:08:38.751Z,11.5
2022-12-24T15:09:38.769Z,11.5
2022-12-24T15:10:38.746Z,11.5
2022-12-24T15:11:38.740Z,11.5
2022-12-24T15:12:38.748Z,11.5
2022-12-24T15:13:38.797Z,11.5
2022-12-24T15:14:38.753Z,11.5
2022-12-24T15:15:38.745Z,11.5
2022-12-24T15:16:38.808Z,11.4
2022-12-24T15:17:38.792Z,11.4
2022-12-24T15:18:38.760Z,11.4
2022-12-24T15:19:38.767Z,11.4
2022-12-24T15:20:38.743Z,11.4
2022-12-24T15:21:38.761Z,11.4
2022-12-24T15:22:38.758Z,11.3
2022-12-24T15:23:38.755Z,11.3
2022-12-24T15:24:38.755Z,11.3
2022-12-24T15:25:38.754Z,11.3
2022-12-24T15:26:38.770Z,11.3
2022-12-24T15:27:38.756Z,11.2
2022-12-24T15:28:38.768Z,11.2
2022-12-24T15:29:38.751Z,11.2
2022-12-24T15:30:38.803Z,11.2
2022-12-24T15:31:38.771Z,11.1
2022-12-24T15:32:38.763Z,11.1
2022-12-24T15:33:38.761Z,11.1
2022-12-24T15:34:38.781Z,11
2022-12-24T15:35:38.761Z,11
2022-12-24T15:36:38.756Z,11
2022-12-24T15:37:38.754Z,10.9
2022-12-24T15:38:38.760Z,10.9
2022-12-24T15:39:38.755Z,10.9
2022-12-24T15:40:38.757Z,10.9
2022-12-24T15:41:38.754Z,10.9
2022-12-24T15:42:38.752Z,10.9
2022-12-24T15:43:38.767Z,10.9
2022-12-24T15:44:38.752Z,10.9
2022-12-24T15:45:38.849Z,10.8
2022-12-24T15:46:38.901Z,10.8
2022-12-24T15:47:38.759Z,10.8
2022-12-24T15:48:38.784Z,10.8
2022-12-24T15:49:38.763Z,10.7
2022-12-24T15:50:38.779Z,10.7
2022-12-24T15:51:40.493Z,10.7
2022-12-24T15:52:38.818Z,10.7
2022-12-24T15:53:38.760Z,10.6
2022-12-24T15:54:38.756Z,10.5
2022-12-24T15:56:38.767Z,10.5
2022-12-24T15:57:38.765Z,10.5
2022-12-24T15:58:38.801Z,10.5
2022-12-24T15:59:38.764Z,10.4
2022-12-24T16:00:38.779Z,10.4
2022-12-24T16:01:38.860Z,10.3
2022-12-24T16:02:39.158Z,10.3
2022-12-24T16:03:38.813Z,10.2
2022-12-24T16:04:38.764Z,10.2
2022-12-24T16:05:38.783Z,10.2
2022-12-24T16:06:38.761Z,10.2
2022-12-24T16:07:38.768Z,10.1
2022-12-24T16:08:38.764Z,10.1
2022-12-24T16:09:38.769Z,10.1
2022-12-24T16:10:39.035Z,10.1
2022-12-24T16:11:38.772Z,10
2022-12-24T16:12:38.772Z,10
2022-12-24T16:13:38.788Z,10
2022-12-24T16:14:38.797Z,10
2022-12-24T16:15:38.803Z,9.9
2022-12-24T16:16:38.809Z,9.9
2022-12-24T16:17:38.785Z,9.9
2022-12-24T16:18:38.782Z,9.9
2022-12-24T16:19:40.620Z,9.8
2022-12-24T16:20:38.771Z,9.8
2022-12-24T16:21:38.761Z,9.7
2022-12-24T16:22:38.783Z,9.7
2022-12-24T16:23:38.781Z,9.7
2022-12-24T16:24:38.760Z,9.7
2022-12-24T16:25:38.771Z,9.6
2022-12-24T16:26:38.771Z,9.6
2022-12-24T16:27:38.773Z,9.5
2022-12-24T16:28:38.766Z,9.5
2022-12-24T16:29:38.770Z,9.5
2022-12-24T16:30:38.948Z,9.4
2022-12-24T16:31:38.939Z,9.4
2022-12-24T16:32:38.768Z,9.3
2022-12-24T16:33:38.771Z,9.3
2022-12-24T16:34:38.768Z,9.3
2022-12-24T16:35:38.776Z,9.3
2022-12-24T16:36:38.794Z,9.3
2022-12-24T16:37:38.770Z,9.2
2022-12-24T16:38:38.782Z,9.3
2022-12-24T16:39:38.774Z,9.2
2022-12-24T16:40:38.786Z,9.1
2022-12-24T16:41:38.773Z,9.1
2022-12-24T16:42:38.772Z,9.1
2022-12-24T16:43:38.784Z,9.1
2022-12-24T16:44:38.776Z,9
2022-12-24T16:45:38.786Z,9
2022-12-24T16:46:38.845Z,9
2022-12-24T16:47:42.792Z,8.9
2022-12-24T16:48:38.856Z,8.9
2022-12-24T16:49:38.802Z,8.9
2022-12-24T16:50:38.835Z,8.9
2022-12-24T16:51:38.789Z,8.9
2022-12-24T16:52:38.774Z,9
2022-12-24T16:53:38.789Z,8.9
2022-12-24T16:54:38.787Z,8.8
2022-12-24T16:56:00.957Z,8.8
2022-12-24T16:56:38.805Z,8.8
2022-12-24T16:57:38.771Z,8.8
2022-12-24T16:58:38.781Z,8.8
2022-12-24T16:59:38.785Z,8.7
2022-12-24T17:00:38.783Z,8.7
2022-12-24T17:01:38.878Z,8.7
2022-12-24T17:02:38.977Z,8.6
2022-12-24T17:03:38.878Z,8.6
2022-12-24T17:04:38.786Z,8.6
2022-12-24T17:05:38.834Z,8.6
2022-12-24T17:06:38.813Z,8.6
2022-12-24T17:07:43.292Z,8.6
2022-12-24T17:08:38.787Z,8.5
2022-12-24T17:10:38.790Z,8.5
2022-12-24T17:11:38.784Z,8.5
2022-12-24T17:12:38.784Z,8.5
2022-12-24T17:13:38.785Z,8.4
2022-12-24T17:14:38.795Z,8.4
2022-12-24T17:15:38.820Z,8.4
2022-12-24T17:16:38.783Z,8.4
2022-12-24T17:17:38.833Z,8.3
2022-12-24T17:18:38.799Z,8.3
2022-12-24T17:19:38.791Z,8.3
2022-12-24T17:20:38.786Z,8.3
2022-12-24T17:21:38.811Z,8.2
2022-12-24T17:22:38.804Z,8.2
2022-12-24T17:23:38.775Z,8.2
2022-12-24T17:24:38.791Z,8.2
2022-12-24T17:25:38.792Z,8.2
2022-12-24T17:26:38.779Z,8.3
2022-12-24T17:27:38.789Z,8.2
2022-12-24T17:28:38.812Z,8.2
2022-12-24T17:29:38.808Z,8.2
2022-12-24T17:30:38.808Z,8.2
2022-12-24T17:31:38.870Z,8.2
2022-12-24T17:32:38.793Z,8.2
2022-12-24T17:33:38.785Z,8.3
2022-12-24T17:34:38.796Z,8.2
2022-12-24T17:35:38.794Z,8.2
2022-12-24T17:36:38.791Z,8.2
2022-12-24T17:37:38.785Z,8.2
2022-12-24T17:38:38.782Z,8.2
2022-12-24T17:39:38.788Z,8.1
2022-12-24T17:40:38.803Z,8.1
2022-12-24T17:41:38.785Z,8.1
2022-12-24T17:42:38.788Z,8.1
2022-12-24T17:43:38.800Z,8.1
2022-12-24T17:44:38.799Z,8.1
2022-12-24T17:45:38.790Z,8.2
2022-12-24T17:46:38.847Z,8.1
2022-12-24T17:47:38.787Z,8.1
2022-12-24T17:48:38.797Z,8.1
2022-12-24T17:49:38.806Z,8.1
2022-12-24T17:50:38.908Z,8
2022-12-24T17:51:44.824Z,8
2022-12-24T17:52:38.846Z,8.1
2022-12-24T17:53:38.795Z,8.1
2022-12-24T17:54:38.798Z,8.1
2022-12-24T17:55:31.979Z,8.1
2022-12-24T17:56:38.792Z,8.1
2022-12-24T17:57:38.857Z,8
2022-12-24T17:58:38.798Z,8
2022-12-24T17:59:38.799Z,8
2022-12-24T18:00:38.791Z,8
2022-12-24T18:01:38.919Z,8
2022-12-24T18:02:39.071Z,8
2022-12-24T18:03:38.910Z,7.9
2022-12-24T18:04:38.790Z,7.9
2022-12-24T18:05:38.796Z,7.8
2022-12-24T18:06:41.994Z,7.8
2022-12-24T18:07:38.797Z,7.8
2022-12-24T18:08:38.802Z,7.8
2022-12-24T18:09:38.799Z,7.7
2022-12-24T18:10:38.793Z,7.7
2022-12-24T18:11:38.826Z,7.8
2022-12-24T18:12:38.806Z,7.7
2022-12-24T18:13:38.818Z,7.7
2022-12-24T18:14:38.831Z,7.7
2022-12-24T18:15:38.837Z,7.7
2022-12-24T18:16:38.893Z,7.7
2022-12-24T18:17:38.800Z,7.6
2022-12-24T18:18:38.805Z,7.6
2022-12-24T18:19:38.809Z,7.7
2022-12-24T18:20:45.998Z,7.7
2022-12-24T18:21:38.827Z,7.7
2022-12-24T18:22:38.812Z,7.6
2022-12-24T18:23:38.831Z,7.6
2022-12-24T18:24:38.845Z,7.6
2022-12-24T18:25:38.804Z,7.6
2022-12-24T18:26:38.802Z,7.6
2022-12-24T18:27:38.797Z,7.5
2022-12-24T18:28:38.809Z,7.5
2022-12-24T18:29:38.901Z,7.5
2022-12-24T18:30:38.814Z,7.6
2022-12-24T18:31:38.930Z,7.6
2022-12-24T18:33:38.818Z,7.5
2022-12-24T18:34:38.812Z,7.5
2022-12-24T18:35:38.805Z,7.5
2022-12-24T18:36:38.828Z,7.4
2022-12-24T18:37:38.805Z,7.4
2022-12-24T18:38:38.801Z,7.4
2022-12-24T18:39:38.836Z,7.4
2022-12-24T18:40:38.812Z,7.4
2022-12-24T18:41:38.870Z,7.4
2022-12-24T18:42:38.796Z,7.4
2022-12-24T18:43:38.805Z,7.3
2022-12-24T18:44:38.797Z,7.3
2022-12-24T18:45:38.805Z,7.2
2022-12-24T18:46:38.839Z,7.2
2022-12-24T18:47:38.796Z,7.2
2022-12-24T18:48:38.809Z,7.2
2022-12-24T18:49:38.837Z,7.2
2022-12-24T18:50:38.820Z,7.2
2022-12-24T18:51:38.814Z,7.2
2022-12-24T18:52:38.801Z,7.2
2022-12-24T18:53:38.838Z,7.2
2022-12-24T18:54:38.837Z,7.2
2022-12-24T18:55:38.809Z,7.2
2022-12-24T18:56:38.806Z,7.2
2022-12-24T18:57:38.869Z,7.2
2022-12-24T18:58:38.807Z,7.2
2022-12-24T18:59:38.812Z,7.3
2022-12-24T19:00:38.851Z,7.2
2022-12-24T19:01:39.094Z,7.2
2022-12-24T19:02:38.990Z,7.2
2022-12-24T19:03:38.808Z,7.2
2022-12-24T19:04:38.812Z,7.2
2022-12-24T19:05:38.853Z,7.2
2022-12-24T19:06:38.881Z,7.2
2022-12-24T19:07:38.813Z,7.1
2022-12-24T19:09:03.870Z,7.1
2022-12-24T19:09:38.821Z,7.1
2022-12-24T19:10:38.835Z,7
2022-12-24T19:11:38.809Z,7
2022-12-24T19:12:38.816Z,6.9
2022-12-24T19:13:38.841Z,7
2022-12-24T19:14:38.829Z,7
2022-12-24T19:15:38.812Z,7
2022-12-24T19:16:38.934Z,7
2022-12-24T19:17:38.808Z,6.9
2022-12-24T19:18:38.818Z,7
2022-12-24T19:19:38.827Z,6.9
2022-12-24T19:20:38.813Z,7
2022-12-24T19:21:38.811Z,7
2022-12-24T19:22:38.816Z,7
2022-12-24T19:23:38.808Z,7
2022-12-24T19:24:38.807Z,7
2022-12-24T19:25:38.839Z,7
2022-12-24T19:26:38.816Z,7.1
2022-12-24T19:27:38.808Z,7.1
2022-12-24T19:28:38.813Z,7.1
2022-12-24T19:29:38.823Z,7.1
2022-12-24T19:30:38.845Z,7
2022-12-24T19:31:38.856Z,7
2022-12-24T19:32:38.821Z,7
2022-12-24T19:33:42.442Z,7
2022-12-24T19:34:38.830Z,7.1
2022-12-24T19:35:38.815Z,7.1
2022-12-24T19:36:38.851Z,7.1
2022-12-24T19:37:38.826Z,7
2022-12-24T19:38:38.847Z,7.1
2022-12-24T19:39:38.819Z,7
2022-12-24T19:40:38.831Z,7
2022-12-24T19:41:38.837Z,7
2022-12-24T19:42:38.813Z,7
2022-12-24T19:43:38.814Z,6.9
2022-12-24T19:44:38.837Z,7
2022-12-24T19:45:38.867Z,7
2022-12-24T19:46:38.831Z,7
2022-12-24T19:47:38.829Z,7
2022-12-24T19:48:38.822Z,7
2022-12-24T19:49:38.836Z,7
2022-12-24T19:50:38.823Z,7
2022-12-24T19:51:38.824Z,7.1
2022-12-24T19:52:38.817Z,7
2022-12-24T19:53:38.822Z,7
2022-12-24T19:54:38.845Z,7.1
2022-12-24T19:55:38.827Z,7.1
2022-12-24T19:56:38.865Z,7.2
2022-12-24T19:57:38.882Z,7.2
2022-12-24T19:58:38.830Z,7.2
2022-12-24T20:00:38.898Z,7.2
2022-12-24T20:01:39.048Z,7.2
2022-12-24T20:02:38.978Z,7.2
2022-12-24T20:03:38.958Z,7.2
2022-12-24T20:04:38.828Z,7.2
2022-12-24T20:05:38.823Z,7.2
2022-12-24T20:06:38.843Z,7.2
2022-12-24T20:07:38.830Z,7.2
2022-12-24T20:08:38.883Z,7.2
2022-12-24T20:09:38.843Z,7.2
2022-12-24T20:10:38.826Z,7.2
2022-12-24T20:11:38.827Z,7.2
2022-12-24T20:12:38.824Z,7.2
2022-12-24T20:13:38.841Z,7.2
2022-12-24T20:14:38.835Z,7.2
2022-12-24T20:15:38.826Z,7.3
2022-12-24T20:16:38.884Z,7.3
2022-12-24T20:17:38.836Z,7.2
2022-12-24T20:18:38.823Z,7.2
2022-12-24T20:19:38.822Z,7.3
2022-12-24T20:20:38.900Z,7.3
2022-12-24T20:21:38.840Z,7.2
2022-12-24T20:22:38.821Z,7.3
2022-12-24T20:23:38.861Z,7.3
2022-12-24T20:24:38.829Z,7.3
2022-12-24T20:25:38.838Z,7.3
2022-12-24T20:27:38.928Z,7.2
2022-12-24T20:28:38.836Z,7.2
2022-12-24T20:29:38.824Z,7.2
2022-12-24T20:30:38.836Z,7.2
2022-12-24T20:31:38.886Z,7.2
2022-12-24T20:32:38.867Z,7.2
2022-12-24T20:33:38.834Z,7.2
2022-12-24T20:34:38.830Z,7.3
2022-12-24T20:35:38.857Z,7.3
2022-12-24T20:36:38.830Z,7.4
2022-12-24T20:37:43.848Z,7.3
2022-12-24T20:38:38.858Z,7.3
2022-12-24T20:39:38.827Z,7.4
2022-12-24T20:40:38.844Z,7.4
2022-12-24T20:41:38.837Z,7.3
2022-12-24T20:42:38.835Z,7.4
2022-12-24T20:43:47.125Z,7.4
2022-12-24T20:44:38.836Z,7.4
2022-12-24T20:45:38.934Z,7.4
2022-12-24T20:46:38.837Z,7.4
2022-12-24T20:47:38.870Z,7.5
2022-12-24T20:48:38.833Z,7.5
2022-12-24T20:49:38.833Z,7.5
2022-12-24T20:50:38.853Z,7.5
2022-12-24T20:51:38.834Z,7.4
2022-12-24T20:52:38.852Z,7.5
2022-12-24T20:53:38.839Z,7.5
2022-12-24T20:54:38.847Z,7.5
2022-12-24T20:55:38.845Z,7.5
2022-12-24T20:56:38.847Z,7.5
2022-12-24T20:57:38.837Z,7.5
2022-12-24T20:58:38.860Z,7.6
2022-12-24T20:59:38.841Z,7.6
2022-12-24T21:00:38.852Z,7.6
2022-12-24T21:01:39.093Z,7.6
2022-12-24T21:02:39.294Z,7.6
2022-12-24T21:03:38.927Z,7.7
2022-12-24T21:04:38.831Z,7.6
2022-12-24T21:05:38.836Z,7.6
2022-12-24T21:06:38.843Z,7.6
2022-12-24T21:07:38.850Z,7.6
2022-12-24T21:08:38.840Z,7.6
2022-12-24T21:09:38.845Z,7.5
2022-12-24T21:10:38.856Z,7.6
2022-12-24T21:11:38.884Z,7.5
2022-12-24T21:12:38.837Z,7.5
2022-12-24T21:13:38.872Z,7.5
2022-12-24T21:14:38.848Z,7.5
2022-12-24T21:15:38.862Z,7.5
2022-12-24T21:16:38.965Z,7.5
2022-12-24T21:17:38.843Z,7.5
2022-12-24T21:18:38.876Z,7.5
2022-12-24T21:19:38.853Z,7.5
2022-12-24T21:20:38.848Z,7.5
2022-12-24T21:21:38.865Z,7.5
2022-12-24T21:22:38.853Z,7.5
2022-12-24T21:23:38.847Z,7.5
2022-12-24T21:24:38.842Z,7.5
2022-12-24T21:25:38.844Z,7.5
2022-12-24T21:26:44.460Z,7.5
2022-12-24T21:27:38.839Z,7.5
2022-12-24T21:28:38.843Z,7.5
2022-12-24T21:29:38.875Z,7.5
2022-12-24T21:30:38.911Z,7.4
2022-12-24T21:31:38.843Z,7.5
2022-12-24T21:32:38.850Z,7.4
2022-12-24T21:33:38.839Z,7.4
2022-12-24T21:34:38.845Z,7.4
2022-12-24T21:35:38.857Z,7.4
2022-12-24T21:37:38.864Z,7.4
2022-12-24T21:38:38.857Z,7.5
2022-12-24T21:39:38.845Z,7.4
2022-12-24T21:40:38.854Z,7.4
2022-12-24T21:41:38.853Z,7.4
2022-12-24T21:42:38.849Z,7.4
2022-12-24T21:43:38.861Z,7.4
2022-12-24T21:44:38.869Z,7.4
2022-12-24T21:45:38.984Z,7.4
2022-12-24T21:46:38.857Z,7.4
2022-12-24T21:47:38.874Z,7.5
2022-12-24T21:48:38.856Z,7.4
2022-12-24T21:49:38.845Z,7.5
2022-12-24T21:50:38.851Z,7.5
2022-12-24T21:51:38.873Z,7.5
2022-12-24T21:52:38.853Z,7.5
2022-12-24T21:53:38.864Z,7.5
2022-12-24T21:54:38.865Z,7.5
2022-12-24T21:55:38.846Z,7.5
2022-12-24T21:56:38.878Z,7.4
2022-12-24T21:57:38.886Z,7.5
2022-12-24T21:58:38.852Z,7.4
2022-12-24T21:59:38.858Z,7.5
2022-12-24T22:00:38.874Z,7.5
2022-12-24T22:01:38.980Z,7.5
2022-12-24T22:02:39.094Z,7.5
2022-12-24T22:03:38.959Z,7.5
2022-12-24T22:04:38.862Z,7.5
2022-12-24T22:05:38.850Z,7.5
2022-12-24T22:06:38.855Z,7.5
2022-12-24T22:08:38.860Z,7.6
2022-12-24T22:09:38.855Z,7.6
2022-12-24T22:10:38.847Z,7.7
2022-12-24T22:11:38.867Z,7.7
2022-12-24T22:12:38.853Z,7.7
2022-12-24T22:13:38.849Z,7.8
2022-12-24T22:14:38.846Z,7.8
2022-12-24T22:15:38.854Z,7.9
2022-12-24T22:16:38.948Z,7.9
2022-12-24T22:17:38.861Z,8
2022-12-24T22:18:38.859Z,8.1
2022-12-24T22:19:38.865Z,8.1
2022-12-24T22:20:38.878Z,8.1
2022-12-24T22:21:38.852Z,8.2
2022-12-24T22:22:38.860Z,8.2
2022-12-24T22:23:42.582Z,8.3
2022-12-24T22:24:38.881Z,8.3
2022-12-24T22:25:38.863Z,8.3
2022-12-24T22:26:38.861Z,8.3
2022-12-24T22:27:38.855Z,8.4
2022-12-24T22:29:38.857Z,8.5
2022-12-24T22:30:38.989Z,8.5
2022-12-24T22:31:38.898Z,8.5
2022-12-24T22:32:38.866Z,8.6
2022-12-24T22:33:38.854Z,8.6
2022-12-24T22:34:38.860Z,8.6
2022-12-24T22:35:38.866Z,8.6
2022-12-24T22:36:38.863Z,8.6
2022-12-24T22:37:38.866Z,8.6
2022-12-24T22:38:38.909Z,8.6
2022-12-24T22:39:38.863Z,8.7
2022-12-24T22:40:38.867Z,8.7
2022-12-24T22:41:38.871Z,8.7
2022-12-24T22:42:38.860Z,8.7
2022-12-24T22:43:38.875Z,8.7
2022-12-24T22:44:38.863Z,8.7
2022-12-24T22:45:38.860Z,8.7
2022-12-24T22:46:38.935Z,8.7
2022-12-24T22:47:38.868Z,8.7
2022-12-24T22:48:38.914Z,8.7
2022-12-24T22:49:38.877Z,8.7
2022-12-24T22:50:38.866Z,8.6
2022-12-24T22:51:38.871Z,8.6
2022-12-24T22:52:38.862Z,8.6
2022-12-24T22:53:38.896Z,8.6
2022-12-24T22:54:38.860Z,8.6
2022-12-24T22:55:38.863Z,8.6
2022-12-24T22:56:41.269Z,8.6
2022-12-24T22:57:38.905Z,8.6
2022-12-24T22:58:38.867Z,8.5
2022-12-24T22:59:38.889Z,8.5
2022-12-24T23:00:38.908Z,8.4
2022-12-24T23:01:39.219Z,8.3
2022-12-24T23:02:39.033Z,8.3
2022-12-24T23:03:38.967Z,8.2
2022-12-24T23:04:38.869Z,8.2
2022-12-24T23:05:38.933Z,8.2
2022-12-24T23:06:38.910Z,8.1
2022-12-24T23:07:48.882Z,8.1
2022-12-24T23:08:38.883Z,8.1
2022-12-24T23:09:38.874Z,8.1
2022-12-24T23:10:38.876Z,8.1
2022-12-24T23:11:38.876Z,8
2022-12-24T23:12:38.875Z,8
2022-12-24T23:13:38.877Z,8
2022-12-24T23:14:38.878Z,8
2022-12-24T23:15:38.910Z,7.9
2022-12-24T23:16:38.871Z,7.9
2022-12-24T23:17:38.887Z,7.9
2022-12-24T23:18:38.881Z,7.9
2022-12-24T23:19:38.900Z,7.8
2022-12-24T23:20:38.871Z,7.8
2022-12-24T23:21:38.880Z,7.8
2022-12-24T23:22:38.897Z,7.7
2022-12-24T23:23:38.871Z,7.7
2022-12-24T23:24:38.878Z,7.7
2022-12-24T23:25:38.870Z,7.6
2022-12-24T23:26:38.883Z,7.6
2022-12-24T23:27:38.879Z,7.6
2022-12-24T23:28:38.880Z,7.6
2022-12-24T23:29:38.874Z,7.6
2022-12-24T23:30:38.919Z,7.6
2022-12-24T23:31:38.915Z,7.6
2022-12-24T23:32:38.914Z,7.6
2022-12-24T23:33:38.901Z,7.6
2022-12-24T23:34:38.888Z,7.6
2022-12-24T23:35:38.880Z,7.6
2022-12-24T23:36:38.877Z,7.6
2022-12-24T23:37:38.969Z,7.6
2022-12-24T23:38:38.887Z,7.6
2022-12-24T23:39:38.879Z,7.6
2022-12-24T23:40:38.887Z,7.6
2022-12-24T23:41:38.880Z,7.7
2022-12-24T23:42:38.895Z,7.7
2022-12-24T23:43:38.922Z,7.7
2022-12-24T23:44:38.875Z,7.8
2022-12-24T23:45:38.899Z,7.8
2022-12-24T23:46:38.940Z,7.8
2022-12-24T23:47:38.887Z,7.8
2022-12-24T23:48:38.890Z,7.8
2022-12-24T23:49:38.903Z,7.9
2022-12-24T23:50:38.883Z,7.8
2022-12-24T23:51:38.883Z,7.8
2022-12-24T23:52:38.913Z,7.8
2022-12-24T23:53:38.898Z,7.9
2022-12-24T23:54:38.894Z,7.8
2022-12-24T23:55:38.889Z,7.8
2022-12-24T23:56:38.888Z,7.8
2022-12-24T23:57:38.884Z,7.8
2022-12-24T23:58:38.884Z,7.7
2022-12-24T23:59:38.880Z,7.7
